Time;durP1;ratioP1;P1;durP2;ratioP2;P2;SDS_P1;SDS_P2;PMS_P1;PMS_P2;Temp;Humidity;BMP_temperature;BMP_pressure;BME280_temperature;BME280_humidity;BME280_pressure;Samples;Min_cycle;Max_cycle;Signal;HPM_P1;HPM_P2
2023/06/17 00:00:28;;;;;;;3.80;3.00;;;14.70;99.90;;;;;;5048888;28;20502;-70
2023/06/17 00:02:56;;;;;;;6.43;3.60;;;14.70;99.90;;;;;;5049206;28;20487;-70
2023/06/17 00:05:24;;;;;;;4.13;3.73;;;14.60;99.90;;;;;;5049519;28;20455;-70
2023/06/17 00:07:51;;;;;;;4.53;3.90;;;14.60;99.90;;;;;;5049152;28;20842;-71
2023/06/17 00:10:19;;;;;;;3.87;3.50;;;14.60;99.90;;;;;;5049264;28;20455;-71
2023/06/17 00:12:48;;;;;;;3.70;3.40;;;14.60;99.90;;;;;;5049076;28;20486;-71
2023/06/17 00:15:16;;;;;;;4.23;3.80;;;14.60;99.90;;;;;;5049236;28;20487;-71
2023/06/17 00:17:44;;;;;;;4.50;2.93;;;14.60;99.90;;;;;;5049355;28;20467;-70
2023/06/17 00:20:12;;;;;;;4.13;3.47;;;14.60;99.90;;;;;;5048800;28;20545;-70
2023/06/17 00:22:39;;;;;;;3.90;3.17;;;14.50;99.90;;;;;;5048800;28;20538;-71
2023/06/17 00:25:07;;;;;;;4.90;3.50;;;14.50;99.90;;;;;;5051645;28;20459;-70
2023/06/17 00:27:35;;;;;;;3.77;3.37;;;14.40;99.90;;;;;;5052746;28;20486;-71
2023/06/17 00:30:01;;;;;;;3.93;3.27;;;14.40;99.90;;;;;;5052992;28;20459;-71
2023/06/17 00:32:29;;;;;;;5.90;3.83;;;14.40;99.90;;;;;;5052639;28;20897;-70
2023/06/17 00:34:55;;;;;;;3.83;3.37;;;14.30;99.90;;;;;;5052941;28;20835;-70
2023/06/17 00:37:23;;;;;;;3.73;3.43;;;14.30;99.90;;;;;;5053017;28;20456;-70
2023/06/17 00:39:50;;;;;;;4.37;3.80;;;14.30;99.90;;;;;;5044317;28;20562;-70
2023/06/17 00:42:16;;;;;;;3.90;3.53;;;14.30;99.90;;;;;;5052557;28;20463;-70
2023/06/17 00:44:44;;;;;;;3.63;3.33;;;14.20;99.90;;;;;;5052492;28;20546;-70
2023/06/17 00:47:13;;;;;;;5.83;3.70;;;14.20;99.90;;;;;;5052781;28;20455;-70
2023/06/17 00:49:41;;;;;;;4.40;3.43;;;14.20;99.90;;;;;;5052182;28;20479;-70
2023/06/17 00:52:10;;;;;;;4.17;3.77;;;14.20;99.90;;;;;;5052367;28;20476;-70
2023/06/17 00:54:39;;;;;;;4.40;3.70;;;14.10;99.90;;;;;;5052313;28;20474;-71
2023/06/17 00:57:09;;;;;;;4.30;3.90;;;14.10;99.90;;;;;;5052723;28;20467;-70
2023/06/17 00:59:38;;;;;;;3.77;3.37;;;14.10;99.90;;;;;;5052000;28;20487;-71
2023/06/17 01:02:09;;;;;;;3.63;3.23;;;14.10;99.90;;;;;;5052095;28;20478;-71
2023/06/17 01:04:37;;;;;;;5.23;3.90;;;14.00;99.90;;;;;;5052281;28;20862;-70
2023/06/17 01:07:16;;;;;;;3.37;2.97;;;14.00;99.90;;;;;;5052682;28;20586;-70
2023/06/17 01:09:48;;;;;;;3.57;3.27;;;14.00;99.90;;;;;;5052178;28;20544;-70
2023/06/17 01:12:16;;;;;;;3.83;3.43;;;14.00;99.90;;;;;;5051930;28;20452;-70
2023/06/17 01:14:49;;;;;;;4.40;3.80;;;13.90;99.90;;;;;;5051648;28;20470;-71
2023/06/17 01:17:18;;;;;;;4.73;4.33;;;13.90;99.90;;;;;;5052267;28;20954;-71
2023/06/17 01:19:48;;;;;;;4.30;3.90;;;13.90;99.90;;;;;;5051838;28;20491;-71
2023/06/17 01:22:17;;;;;;;4.17;3.70;;;13.90;99.90;;;;;;5051879;28;20570;-71
2023/06/17 01:24:46;;;;;;;5.10;3.43;;;13.90;99.90;;;;;;5051749;28;20463;-70
2023/06/17 01:27:13;;;;;;;5.17;3.67;;;13.90;99.90;;;;;;5052114;28;20506;-70
2023/06/17 01:29:40;;;;;;;4.50;3.30;;;13.80;99.90;;;;;;5051709;28;20486;-71
2023/06/17 01:32:07;;;;;;;4.77;3.70;;;13.80;99.90;;;;;;5046171;28;20947;-71
2023/06/17 01:34:40;;;;;;;4.63;3.60;;;13.80;99.90;;;;;;5049331;28;20459;-70
2023/06/17 01:37:11;;;;;;;4.03;3.40;;;13.80;99.90;;;;;;5052164;28;20467;-71
2023/06/17 01:39:40;;;;;;;5.00;3.60;;;13.80;99.90;;;;;;5051387;28;20479;-70
2023/06/17 01:42:23;;;;;;;5.83;3.10;;;13.70;99.90;;;;;;5051410;28;20553;-70
2023/06/17 01:44:50;;;;;;;4.23;3.60;;;13.70;99.90;;;;;;5051166;28;20467;-71
2023/06/17 01:47:17;;;;;;;4.60;4.17;;;13.70;99.90;;;;;;5051736;28;20459;-71
2023/06/17 01:49:44;;;;;;;6.87;4.07;;;13.70;99.90;;;;;;5050874;28;20482;-71
2023/06/17 01:52:11;;;;;;;3.67;3.37;;;13.70;99.90;;;;;;5051248;28;20459;-70
2023/06/17 01:54:38;;;;;;;4.40;4.00;;;13.70;99.90;;;;;;5051217;28;20959;-70
2023/06/17 01:57:05;;;;;;;4.80;3.97;;;13.70;99.90;;;;;;5043382;28;20826;-70
2023/06/17 01:59:33;;;;;;;4.80;4.27;;;13.70;99.90;;;;;;5050993;28;20494;-70
2023/06/17 02:02:00;;;;;;;4.20;3.80;;;13.60;99.90;;;;;;5051037;28;20483;-70
2023/06/17 02:04:27;;;;;;;5.83;4.23;;;13.60;99.90;;;;;;5051338;28;20467;-70
2023/06/17 02:06:54;;;;;;;4.63;3.87;;;13.60;99.90;;;;;;5051232;28;20466;-70
2023/06/17 02:09:21;;;;;;;4.73;4.23;;;13.50;99.90;;;;;;5051393;28;20533;-71
2023/06/17 02:11:48;;;;;;;4.53;3.33;;;13.50;99.90;;;;;;5050484;28;20992;-70
2023/06/17 02:14:15;;;;;;;4.53;4.13;;;13.50;99.90;;;;;;5051255;28;20460;-71
2023/06/17 02:16:46;;;;;;;5.10;4.60;;;13.50;99.90;;;;;;5050744;28;20459;-71
2023/06/17 02:19:14;;;;;;;6.00;3.97;;;13.50;99.90;;;;;;5051186;28;20483;-71
2023/06/17 02:21:41;;;;;;;4.60;3.97;;;13.50;99.90;;;;;;5050675;28;20479;-71
2023/06/17 02:24:07;;;;;;;4.50;4.10;;;13.40;99.90;;;;;;5042741;28;20456;-71
2023/06/17 02:26:34;;;;;;;4.50;4.10;;;13.40;99.90;;;;;;5051015;28;21060;-71
2023/06/17 02:29:01;;;;;;;4.03;3.63;;;13.40;99.90;;;;;;5050617;28;20483;-70
2023/06/17 02:31:28;;;;;;;5.10;3.93;;;13.40;99.90;;;;;;5050469;28;20462;-70
2023/06/17 02:33:57;;;;;;;4.50;4.03;;;13.30;99.90;;;;;;5050572;28;20459;-70
2023/06/17 02:36:23;;;;;;;3.93;3.63;;;13.30;99.90;;;;;;5051074;28;20456;-70
2023/06/17 02:38:50;;;;;;;4.23;3.83;;;13.30;99.90;;;;;;5050294;28;20509;-71
2023/06/17 02:41:17;;;;;;;4.40;4.00;;;13.30;99.90;;;;;;5050622;28;20922;-70
2023/06/17 02:43:44;;;;;;;6.00;4.00;;;13.30;99.90;;;;;;5050053;28;20972;-70
2023/06/17 02:46:10;;;;;;;5.43;4.93;;;13.20;99.90;;;;;;5050846;28;20487;-71
2023/06/17 02:48:37;;;;;;;4.57;4.07;;;13.20;99.90;;;;;;5049819;28;21022;-71
2023/06/17 02:51:07;;;;;;;5.00;4.50;;;13.20;99.90;;;;;;5050690;28;20462;-70
2023/06/17 02:53:34;;;;;;;4.67;4.00;;;13.20;99.90;;;;;;5050223;28;21000;-71
2023/06/17 02:56:01;;;;;;;4.60;4.10;;;13.10;99.90;;;;;;5050625;28;20550;-70
2023/06/17 02:58:28;;;;;;;3.97;3.40;;;13.10;99.90;;;;;;5050371;28;20483;-70
2023/06/17 03:00:57;;;;;;;5.17;4.67;;;13.10;99.90;;;;;;5050404;28;20483;-70
2023/06/17 03:03:33;;;;;;;5.17;4.73;;;13.00;99.90;;;;;;5063105;22;20498;-70
2023/06/17 03:06:01;;;;;;;5.10;4.20;;;13.00;99.90;;;;;;5043608;28;20467;-70
2023/06/17 03:08:30;;;;;;;4.43;4.00;;;13.00;99.90;;;;;;5050193;28;20479;-71
2023/06/17 03:10:57;;;;;;;5.77;4.07;;;12.90;99.90;;;;;;5045911;28;20453;-70
2023/06/17 03:13:23;;;;;;;6.33;4.07;;;12.90;99.90;;;;;;5029348;28;20814;-71
2023/06/17 03:15:50;;;;;;;4.93;3.80;;;12.90;99.90;;;;;;5030248;28;20461;-71
2023/06/17 03:18:17;;;;;;;4.00;3.60;;;12.90;99.90;;;;;;5030156;28;20542;-70
2023/06/17 03:20:43;;;;;;;6.10;5.17;;;12.90;99.90;;;;;;5029845;28;20471;-72
2023/06/17 03:23:11;;;;;;;6.47;4.50;;;12.90;99.90;;;;;;5029861;28;20463;-71
2023/06/17 03:25:39;;;;;;;6.23;4.20;;;12.90;99.90;;;;;;5048100;28;20951;-71
2023/06/17 03:28:05;;;;;;;4.40;3.90;;;12.80;99.90;;;;;;5050009;28;20514;-71
2023/06/17 03:30:32;;;;;;;4.40;3.90;;;12.80;99.90;;;;;;5049725;28;20824;-72
2023/06/17 03:32:59;;;;;;;4.80;4.30;;;12.80;99.90;;;;;;5049778;28;20460;-71
2023/06/17 03:35:26;;;;;;;5.10;4.53;;;12.80;99.90;;;;;;5050066;28;20459;-70
2023/06/17 03:37:52;;;;;;;5.33;4.60;;;12.80;99.90;;;;;;5049924;28;20486;-72
2023/06/17 03:40:19;;;;;;;4.70;4.30;;;12.80;99.90;;;;;;5049497;28;20463;-72
2023/06/17 03:42:47;;;;;;;4.20;3.80;;;12.70;99.90;;;;;;5049430;28;20489;-71
2023/06/17 03:45:14;;;;;;;6.97;4.83;;;12.70;99.90;;;;;;5049716;28;20906;-72
2023/06/17 03:47:41;;;;;;;4.90;4.40;;;12.70;99.90;;;;;;5049559;28;20471;-73
2023/06/17 03:50:09;;;;;;;6.37;4.43;;;12.70;99.90;;;;;;5049494;28;20463;-72
2023/06/17 03:52:35;;;;;;;4.43;3.47;;;12.70;99.90;;;;;;5049331;28;20458;-72
2023/06/17 03:55:03;;;;;;;5.27;4.40;;;12.70;99.90;;;;;;5049727;28;20470;-72
2023/06/17 03:57:29;;;;;;;5.30;4.47;;;12.70;99.90;;;;;;5049418;28;20502;-72
2023/06/17 03:59:57;;;;;;;4.10;3.77;;;12.70;99.90;;;;;;5053325;28;21013;-72
2023/06/17 04:02:24;;;;;;;5.67;4.40;;;12.70;99.90;;;;;;5053251;28;20479;-73
2023/06/17 04:04:52;;;;;;;5.70;4.57;;;12.70;99.90;;;;;;5054090;28;20459;-72
2023/06/17 04:07:19;;;;;;;3.93;3.53;;;12.60;99.90;;;;;;5053672;28;20877;-72
2023/06/17 04:09:46;;;;;;;4.53;4.10;;;12.70;99.90;;;;;;5053564;28;20486;-72
2023/06/17 04:12:13;;;;;;;5.07;4.30;;;12.70;99.90;;;;;;5053096;28;20510;-72
2023/06/17 04:14:39;;;;;;;4.83;4.33;;;12.60;99.90;;;;;;5053455;28;20472;-73
2023/06/17 04:17:07;;;;;;;4.77;4.33;;;12.70;99.90;;;;;;5053530;28;20463;-72
2023/06/17 04:19:37;;;;;;;5.37;4.03;;;12.70;99.90;;;;;;5053287;28;20854;-72
2023/06/17 04:22:04;;;;;;;5.57;4.43;;;12.70;99.90;;;;;;5052859;28;20533;-72
2023/06/17 04:24:31;;;;;;;5.23;4.73;;;12.70;99.90;;;;;;5053001;28;20466;-72
2023/06/17 04:26:58;;;;;;;4.20;3.80;;;12.70;99.90;;;;;;5053429;28;20471;-71
2023/06/17 04:29:29;;;;;;;4.50;4.10;;;12.70;99.90;;;;;;5053179;28;21373;-71
2023/06/17 04:31:56;;;;;;;4.73;4.07;;;12.70;99.90;;;;;;5052111;28;20463;-71
2023/06/17 04:34:26;;;;;;;5.37;4.47;;;12.70;99.90;;;;;;5052985;28;20994;-71
2023/06/17 04:36:56;;;;;;;4.60;4.10;;;12.80;99.90;;;;;;5053214;28;20468;-71
2023/06/17 04:39:23;;;;;;;5.47;4.30;;;12.80;99.90;;;;;;5052955;28;20487;-71
2023/06/17 04:41:50;;;;;;;5.80;4.50;;;12.80;99.90;;;;;;5052586;28;20552;-73
2023/06/17 04:44:17;;;;;;;4.47;3.90;;;12.90;99.90;;;;;;5053014;28;20470;-70
2023/06/17 04:46:45;;;;;;;5.10;4.33;;;12.90;99.90;;;;;;5052909;28;20847;-71
2023/06/17 04:49:12;;;;;;;6.17;4.47;;;13.00;99.90;;;;;;5052884;28;20553;-71
2023/06/17 04:51:41;;;;;;;4.80;4.40;;;13.00;99.90;;;;;;5052649;28;20539;-72
2023/06/17 04:54:08;;;;;;;6.37;4.80;;;13.10;99.90;;;;;;5052435;28;20470;-71
2023/06/17 04:56:35;;;;;;;5.13;4.60;;;13.10;99.90;;;;;;5052715;28;20858;-72
2023/06/17 04:59:01;;;;;;;4.70;4.30;;;13.20;99.90;;;;;;5052635;28;20487;-72
2023/06/17 05:01:28;;;;;;;4.63;4.17;;;13.20;99.90;;;;;;5052241;28;20479;-71
2023/06/17 05:03:55;;;;;;;6.67;4.43;;;13.30;99.90;;;;;;5052400;28;20962;-71
2023/06/17 05:06:21;;;;;;;5.17;4.37;;;13.40;99.90;;;;;;5050800;28;20842;-73
2023/06/17 05:08:49;;;;;;;4.83;4.23;;;13.40;99.90;;;;;;5024731;28;20515;-72
2023/06/17 05:11:16;;;;;;;5.57;5.07;;;13.50;99.90;;;;;;5031750;28;20899;-73
2023/06/17 05:13:43;;;;;;;5.90;4.07;;;13.60;99.90;;;;;;5032130;28;20464;-73
2023/06/17 05:16:09;;;;;;;4.30;3.90;;;13.70;99.90;;;;;;5032412;28;20464;-72
2023/06/17 05:18:36;;;;;;;5.37;4.87;;;13.80;99.90;;;;;;5032327;28;20929;-73
2023/06/17 05:21:04;;;;;;;5.07;4.67;;;13.90;99.90;;;;;;5032293;28;20837;-73
2023/06/17 05:23:31;;;;;;;5.83;4.27;;;14.10;99.90;;;;;;5031705;28;20519;-72
2023/06/17 05:25:59;;;;;;;5.30;4.20;;;14.20;99.90;;;;;;5032282;28;20987;-72
2023/06/17 05:28:25;;;;;;;5.60;4.20;;;14.30;99.90;;;;;;5032183;28;20488;-71
2023/06/17 05:30:52;;;;;;;5.87;5.27;;;14.50;99.90;;;;;;5032399;28;20847;-70
2023/06/17 05:33:19;;;;;;;4.50;4.10;;;14.60;99.90;;;;;;5032066;28;20535;-71
2023/06/17 05:35:45;;;;;;;7.07;5.20;;;14.70;99.90;;;;;;5032320;28;20460;-71
2023/06/17 05:38:12;;;;;;;5.27;4.50;;;14.80;99.90;;;;;;5032115;28;20483;-71
2023/06/17 05:40:39;;;;;;;5.33;4.80;;;14.90;99.90;;;;;;5032028;28;20456;-70
2023/06/17 05:43:07;;;;;;;4.97;4.47;;;15.00;99.90;;;;;;5031920;28;20552;-71
2023/06/17 05:45:33;;;;;;;5.67;4.73;;;15.10;99.90;;;;;;5032308;28;20972;-72
2023/06/17 05:48:00;;;;;;;5.37;4.83;;;15.20;99.90;;;;;;5032262;28;20484;-71
2023/06/17 05:50:27;;;;;;;4.20;3.90;;;15.30;99.90;;;;;;5031847;28;20467;-70
2023/06/17 05:52:53;;;;;;;4.53;4.17;;;15.40;99.90;;;;;;5031881;28;20461;-70
2023/06/17 05:55:20;;;;;;;5.53;4.40;;;15.50;99.90;;;;;;5032124;28;20476;-71
2023/06/17 05:57:48;;;;;;;5.23;4.23;;;15.60;99.90;;;;;;5031832;28;20947;-70
2023/06/17 06:00:17;;;;;;;7.37;5.57;;;15.80;99.90;;;;;;5031849;28;20488;-70
2023/06/17 06:02:44;;;;;;;5.90;4.80;;;15.90;99.90;;;;;;5031323;28;20479;-70
2023/06/17 06:05:11;;;;;;;5.93;4.27;;;16.00;99.90;;;;;;5031301;28;20467;-71
2023/06/17 06:07:38;;;;;;;5.90;4.97;;;16.10;99.90;;;;;;5031219;28;20506;-70
2023/06/17 06:10:07;;;;;;;6.83;5.30;;;16.20;99.90;;;;;;5031682;28;20464;-70
2023/06/17 06:12:33;;;;;;;5.00;4.60;;;16.30;99.90;;;;;;5031517;28;20467;-70
2023/06/17 06:15:00;;;;;;;5.00;4.50;;;16.40;99.90;;;;;;5031715;28;20460;-70
2023/06/17 06:17:28;;;;;;;5.10;4.60;;;16.60;99.90;;;;;;5031468;28;20970;-71
2023/06/17 06:19:55;;;;;;;4.50;4.07;;;16.80;99.90;;;;;;5031768;28;20883;-72
2023/06/17 06:22:21;;;;;;;5.03;4.57;;;16.90;99.90;;;;;;5029884;28;20488;-70
2023/06/17 06:24:48;;;;;;;5.00;4.00;;;17.00;99.90;;;;;;5031498;28;20511;-71
2023/06/17 06:27:15;;;;;;;5.50;4.60;;;17.20;99.90;;;;;;5031449;28;20471;-70
2023/06/17 06:29:42;;;;;;;5.77;4.23;;;17.30;99.90;;;;;;5031056;28;20491;-70
2023/06/17 06:32:09;;;;;;;6.03;5.30;;;17.40;99.90;;;;;;5030813;28;20467;-71
2023/06/17 06:34:37;;;;;;;4.90;4.50;;;17.50;99.90;;;;;;5031444;28;20464;-70
2023/06/17 06:37:04;;;;;;;3.97;3.57;;;17.60;99.90;;;;;;5031364;28;20468;-70
2023/06/17 06:39:31;;;;;;;5.43;4.27;;;17.70;99.90;;;;;;5025493;28;20519;-71
2023/06/17 06:41:57;;;;;;;5.97;4.50;;;17.90;99.90;;;;;;5029196;28;21268;-71
2023/06/17 06:44:24;;;;;;;5.13;4.63;;;18.00;99.90;;;;;;5041894;28;20479;-71
2023/06/17 06:46:51;;;;;;;5.63;5.10;;;18.10;99.90;;;;;;5030644;28;20551;-71
2023/06/17 06:49:17;;;;;;;6.60;4.60;;;18.20;99.90;;;;;;5030671;28;20934;-72
2023/06/17 06:51:45;;;;;;;4.67;4.23;;;18.40;99.90;;;;;;5030306;28;20471;-72
2023/06/17 06:54:12;;;;;;;5.33;4.33;;;18.50;99.90;;;;;;5030229;28;20460;-72
2023/06/17 06:56:39;;;;;;;4.80;4.30;;;18.70;99.90;;;;;;5030757;28;20466;-71
2023/06/17 06:59:05;;;;;;;4.63;4.23;;;18.80;99.90;;;;;;5030550;28;21257;-73
2023/06/17 07:01:32;;;;;;;4.77;4.30;;;18.90;99.90;;;;;;5030261;28;20456;-71
2023/06/17 07:03:59;;;;;;;4.50;4.10;;;19.10;99.90;;;;;;5030056;28;20481;-71
2023/06/17 07:06:27;;;;;;;6.30;4.17;;;19.40;99.50;;;;;;5029545;28;20500;-71
2023/06/17 07:08:55;;;;;;;5.17;4.50;;;19.60;99.00;;;;;;5022013;28;20572;-71
2023/06/17 07:11:23;;;;;;;4.87;4.20;;;19.70;99.40;;;;;;5030029;28;20475;-71
2023/06/17 07:13:50;;;;;;;6.87;4.47;;;19.80;99.90;;;;;;5029042;28;20477;-70
2023/06/17 07:16:17;;;;;;;5.30;4.80;;;19.90;99.90;;;;;;5029187;28;20466;-71
2023/06/17 07:18:45;;;;;;;4.20;3.23;;;20.00;99.60;;;;;;5029268;28;20492;-70
2023/06/17 07:21:12;;;;;;;4.80;4.30;;;20.10;98.90;;;;;;5028333;28;20544;-71
2023/06/17 07:23:39;;;;;;;6.50;3.90;;;20.10;98.70;;;;;;5029037;28;20485;-70
2023/06/17 07:26:09;;;;;;;4.43;4.03;;;20.30;99.40;;;;;;5029890;28;20526;-71
2023/06/17 07:28:36;;;;;;;4.27;3.87;;;20.40;99.10;;;;;;5028665;28;20573;-71
2023/06/17 07:31:03;;;;;;;6.20;4.50;;;20.50;98.40;;;;;;5028181;28;20520;-71
2023/06/17 07:33:31;;;;;;;4.90;4.50;;;20.50;97.90;;;;;;5027900;28;20836;-71
2023/06/17 07:35:59;;;;;;;4.90;4.50;;;20.70;97.90;;;;;;5028241;28;20959;-73
2023/06/17 07:38:26;;;;;;;5.27;4.77;;;20.90;98.10;;;;;;5028074;28;20258;-71
2023/06/17 07:40:53;;;;;;;4.50;4.10;;;21.00;96.70;;;;;;5019194;28;20466;-72
2023/06/17 07:43:22;;;;;;;4.37;3.97;;;21.10;97.40;;;;;;5026850;28;20487;-71
2023/06/17 07:45:49;;;;;;;4.43;3.90;;;21.30;97.20;;;;;;5025685;28;20467;-72
2023/06/17 07:48:16;;;;;;;4.20;3.77;;;21.40;97.30;;;;;;5026158;28;20497;-72
2023/06/17 07:50:44;;;;;;;5.53;4.23;;;21.40;96.00;;;;;;5027930;28;20641;-71
2023/06/17 07:53:11;;;;;;;4.40;4.00;;;21.50;96.60;;;;;;5028547;28;20492;-71
2023/06/17 07:55:39;;;;;;;3.77;3.37;;;21.60;95.50;;;;;;5029216;28;20460;-72
2023/06/17 07:58:06;;;;;;;4.00;3.60;;;21.80;95.00;;;;;;5029135;28;20541;-72
2023/06/17 08:00:35;;;;;;;4.13;3.73;;;21.90;95.70;;;;;;5028540;28;20460;-71
2023/06/17 08:03:03;;;;;;;4.17;3.63;;;22.00;94.40;;;;;;5028743;28;20552;-71
2023/06/17 08:05:31;;;;;;;3.40;3.10;;;22.00;95.00;;;;;;5028578;28;20503;-72
2023/06/17 08:07:59;;;;;;;4.10;3.53;;;22.00;94.70;;;;;;5028856;28;20523;-71
2023/06/17 08:10:26;;;;;;;5.30;3.73;;;22.10;95.70;;;;;;5028735;28;20463;-71
2023/06/17 08:12:53;;;;;;;4.73;4.27;;;22.20;96.00;;;;;;5020775;28;20515;-71
2023/06/17 08:15:22;;;;;;;4.93;4.43;;;22.20;95.60;;;;;;5028839;28;20559;-72
2023/06/17 08:17:52;;;;;;;3.90;3.50;;;22.30;94.80;;;;;;5028334;28;20507;-72
2023/06/17 08:20:20;;;;;;;5.00;4.20;;;22.40;95.50;;;;;;5028562;28;20546;-71
2023/06/17 08:22:47;;;;;;;7.20;4.77;;;22.50;96.60;;;;;;5028026;28;20481;-73
2023/06/17 08:25:14;;;;;;;4.27;3.87;;;22.60;96.70;;;;;;5029165;28;20820;-72
2023/06/17 08:27:43;;;;;;;4.30;3.90;;;22.70;94.60;;;;;;5028353;28;20547;-72
2023/06/17 08:30:11;;;;;;;4.57;4.00;;;22.80;93.40;;;;;;5028061;28;20565;-71
2023/06/17 08:32:39;;;;;;;5.30;3.50;;;22.90;93.60;;;;;;5028289;28;20977;-72
2023/06/17 08:35:08;;;;;;;4.23;3.83;;;23.00;95.60;;;;;;5028625;28;20457;-72
2023/06/17 08:37:35;;;;;;;5.20;4.27;;;23.00;94.70;;;;;;5028088;28;20457;-72
2023/06/17 08:40:03;;;;;;;4.73;4.30;;;23.00;95.90;;;;;;5028674;28;20469;-72
2023/06/17 08:42:31;;;;;;;5.00;3.90;;;23.00;95.30;;;;;;5045348;28;20456;-72
2023/06/17 08:45:00;;;;;;;5.00;4.17;;;22.80;95.70;;;;;;5029658;28;20472;-72
2023/06/17 08:47:27;;;;;;;3.70;3.20;;;22.80;92.50;;;;;;5033000;28;20492;-72
2023/06/17 08:49:55;;;;;;;3.83;3.43;;;22.70;91.50;;;;;;5033093;28;20480;-72
2023/06/17 08:52:24;;;;;;;4.47;4.07;;;22.80;94.30;;;;;;5032859;28;21216;-72
2023/06/17 08:54:53;;;;;;;5.37;3.90;;;22.80;93.70;;;;;;5032952;28;20467;-72
2023/06/17 08:57:20;;;;;;;3.80;3.40;;;22.90;92.40;;;;;;5032886;28;20481;-72
2023/06/17 08:59:47;;;;;;;4.70;4.30;;;22.90;94.60;;;;;;5032704;28;20477;-72
2023/06/17 09:02:15;;;;;;;4.27;3.40;;;22.90;95.10;;;;;;5060100;22;20556;-95
2023/06/17 09:04:42;;;;;;;3.93;3.53;;;23.00;95.80;;;;;;5076955;28;20476;-94
2023/06/17 09:07:09;;;;;;;6.67;3.90;;;23.00;95.40;;;;;;5071929;28;20484;-94
2023/06/17 09:14:07;;;;;;;4.07;3.67;;;23.10;94.60;;;;;;5052903;28;20493;-95
2023/06/17 09:24:06;;;;;;;4.10;3.27;;;23.20;92.30;;;;;;4971770;28;20499;-94
2023/06/17 09:33:04;;;;;;;3.33;3.03;;;23.60;92.40;;;;;;5060649;28;20477;-93
2023/06/17 09:36:20;;;;;;;3.43;3.13;;;23.50;92.00;;;;;;5066201;28;20988;-94
2023/06/17 09:42:33;;;;;;;3.87;3.53;;;23.50;91.30;;;;;;5061403;28;20444;-94
2023/06/17 09:45:24;;;;;;;4.40;3.93;;;23.70;92.70;;;;;;5072638;28;20488;-93
2023/06/17 09:56:52;;;;;;;4.20;3.80;;;24.70;93.60;;;;;;5076576;28;20969;-94
2023/06/17 09:59:48;;;;;;;3.47;3.10;;;24.90;92.90;;;;;;5071031;28;20452;-94
2023/06/17 10:02:35;;;;;;;4.20;3.80;;;24.80;92.40;;;;;;5064727;28;20490;-94
2023/06/17 10:05:03;;;;;;;3.63;3.33;;;24.70;93.40;;;;;;5066690;28;20463;-93
2023/06/17 10:07:36;;;;;;;3.63;3.10;;;24.50;93.50;;;;;;5066271;28;20466;-93
2023/06/17 10:10:03;;;;;;;4.50;4.07;;;24.30;93.00;;;;;;5062902;28;20479;-93
2023/06/17 10:12:31;;;;;;;4.10;3.80;;;24.00;91.10;;;;;;5071267;28;20499;-94
2023/06/17 10:15:00;;;;;;;4.13;3.73;;;23.90;92.50;;;;;;5071171;28;20478;-93
2023/06/17 10:17:28;;;;;;;4.50;4.10;;;23.90;93.00;;;;;;5069394;28;20481;-93
2023/06/17 10:19:55;;;;;;;3.80;3.40;;;24.10;93.50;;;;;;5074325;28;20442;-93
2023/06/17 10:22:55;;;;;;;3.70;3.40;;;24.50;94.30;;;;;;5073035;28;20458;-94
2023/06/17 10:25:32;;;;;;;4.37;3.97;;;24.80;93.50;;;;;;5077623;28;20442;-94
2023/06/17 10:31:39;;;;;;;4.30;3.90;;;24.90;93.10;;;;;;5057562;28;20465;-95
2023/06/17 10:34:08;;;;;;;3.67;3.37;;;24.80;93.30;;;;;;5071590;28;20488;-94
2023/06/17 10:36:53;;;;;;;3.63;3.33;;;25.00;94.70;;;;;;5068196;28;20455;-94
2023/06/17 10:42:34;;;;;;;4.23;3.83;;;25.20;91.00;;;;;;5064721;28;20476;-93
2023/06/17 10:45:12;;;;;;;3.57;3.27;;;25.20;91.80;;;;;;5064412;28;20452;-93
2023/06/17 10:47:40;;;;;;;4.13;3.70;;;25.40;92.70;;;;;;5075180;28;20520;-94
2023/06/17 10:50:08;;;;;;;3.80;3.50;;;25.60;90.00;;;;;;5076950;28;20440;-93
2023/06/17 10:52:35;;;;;;;6.50;3.90;;;25.80;91.30;;;;;;5076754;28;20523;-93
2023/06/17 10:55:13;;;;;;;3.93;3.53;;;25.90;91.60;;;;;;5076818;28;20497;-94
2023/06/17 10:57:58;;;;;;;3.93;3.50;;;26.00;91.50;;;;;;5076608;28;20449;-94
2023/06/17 11:00:24;;;;;;;4.30;3.90;;;26.20;90.00;;;;;;5076376;28;20441;-92
2023/06/17 11:02:53;;;;;;;4.30;3.90;;;26.40;83.40;;;;;;5076587;28;20484;-94
2023/06/17 11:05:19;;;;;;;5.93;3.70;;;26.50;87.10;;;;;;5077559;28;20456;-94
2023/06/17 11:07:46;;;;;;;3.83;3.53;;;26.60;84.70;;;;;;5076546;28;20438;-93
2023/06/17 11:13:20;;;;;;;4.90;3.70;;;26.30;87.10;;;;;;5075400;28;20467;-94
2023/06/17 11:15:47;;;;;;;5.27;3.53;;;25.80;86.50;;;;;;5073638;28;20473;-93
2023/06/17 11:18:16;;;;;;;3.70;3.40;;;25.40;88.80;;;;;;5072495;28;20509;-93
2023/06/17 11:20:43;;;;;;;4.17;3.80;;;25.30;89.70;;;;;;5075289;28;20459;-94
2023/06/17 11:26:41;;;;;;;5.03;4.47;;;25.40;87.70;;;;;;5076359;28;20447;-93
2023/06/17 11:29:09;;;;;;;3.67;3.37;;;25.50;88.70;;;;;;5070638;28;20977;-93
2023/06/17 11:31:38;;;;;;;3.80;3.43;;;25.80;90.60;;;;;;5076218;28;20432;-93
2023/06/17 11:34:07;;;;;;;3.57;3.27;;;26.00;90.80;;;;;;5076471;28;20494;-93
2023/06/17 11:36:35;;;;;;;4.40;3.70;;;26.40;90.00;;;;;;5076649;28;20441;-94
2023/06/17 11:39:46;;;;;;;3.87;3.57;;;26.60;87.30;;;;;;5076251;28;20443;-93
2023/06/17 11:43:03;;;;;;;4.00;3.70;;;26.70;88.50;;;;;;5074511;28;20477;-94
2023/06/17 11:45:49;;;;;;;4.23;3.83;;;26.90;91.40;;;;;;5075454;28;20449;-94
2023/06/17 11:51:16;;;;;;;3.53;3.23;;;27.00;83.00;;;;;;5049006;28;20583;-73
2023/06/17 11:53:46;;;;;;;3.70;3.40;;;26.90;80.60;;;;;;5049484;28;20522;-73
2023/06/17 11:56:14;;;;;;;4.00;3.60;;;26.80;91.50;;;;;;5050691;28;20822;-73
2023/06/17 11:58:42;;;;;;;4.80;3.50;;;26.80;87.40;;;;;;5031495;28;20566;-73
2023/06/17 12:01:10;;;;;;;3.87;3.53;;;26.90;87.10;;;;;;5031639;28;20471;-72
2023/06/17 12:03:37;;;;;;;3.60;3.30;;;26.90;85.20;;;;;;5028782;28;20760;-72
2023/06/17 12:06:04;;;;;;;5.23;3.53;;;26.90;86.40;;;;;;5029396;28;20470;-73
2023/06/17 12:08:34;;;;;;;4.07;3.67;;;26.90;85.30;;;;;;5029299;28;20483;-72
2023/06/17 12:11:04;;;;;;;6.90;3.60;;;27.00;83.60;;;;;;5029840;28;20499;-72
2023/06/17 12:13:39;;;;;;;3.30;2.90;;;27.00;85.70;;;;;;5028907;28;20475;-72
2023/06/17 12:16:10;;;;;;;3.83;3.43;;;26.90;86.30;;;;;;5031781;28;20512;-72
2023/06/17 12:18:36;;;;;;;6.20;4.00;;;26.90;85.50;;;;;;5049187;28;20478;-72
2023/06/17 12:21:09;;;;;;;3.90;3.60;;;27.00;86.50;;;;;;5051115;28;20491;-73
2023/06/17 12:23:37;;;;;;;3.43;3.13;;;27.10;87.60;;;;;;5042599;28;20458;-73
2023/06/17 12:26:04;;;;;;;3.60;3.30;;;27.20;85.60;;;;;;5053685;28;20467;-73
2023/06/17 12:28:32;;;;;;;3.70;3.33;;;27.40;80.20;;;;;;5053165;28;20577;-73
2023/06/17 12:30:59;;;;;;;4.00;3.60;;;27.50;82.80;;;;;;5053063;28;20470;-73
2023/06/17 12:33:25;;;;;;;4.50;3.50;;;27.50;84.60;;;;;;5052850;28;20470;-73
2023/06/17 12:35:52;;;;;;;3.90;3.50;;;27.30;82.20;;;;;;5053660;28;20480;-72
2023/06/17 12:38:20;;;;;;;4.07;3.43;;;27.00;84.90;;;;;;5038198;28;20510;-73
2023/06/17 12:40:48;;;;;;;3.83;3.53;;;26.80;81.80;;;;;;5032322;28;20497;-73
2023/06/17 12:43:15;;;;;;;3.37;3.07;;;26.50;83.50;;;;;;5032722;28;21060;-73
2023/06/17 12:45:42;;;;;;;4.30;3.83;;;26.40;86.20;;;;;;5032986;28;20524;-72
2023/06/17 12:48:09;;;;;;;6.43;3.83;;;26.50;86.00;;;;;;5040778;28;21136;-73
2023/06/17 12:50:36;;;;;;;3.63;3.20;;;26.60;84.00;;;;;;5052441;28;20531;-73
2023/06/17 12:53:02;;;;;;;3.57;3.27;;;26.50;85.50;;;;;;5052436;28;20465;-72
2023/06/17 12:55:29;;;;;;;4.30;3.60;;;26.70;84.00;;;;;;5042940;28;20498;-73
2023/06/17 12:57:58;;;;;;;3.63;3.33;;;26.90;86.40;;;;;;5049587;28;20539;-73
2023/06/17 13:00:25;;;;;;;3.20;2.90;;;27.00;88.60;;;;;;5044718;28;20557;-72
2023/06/17 13:02:54;;;;;;;3.47;3.17;;;27.20;86.40;;;;;;5048202;28;20505;-73
2023/06/17 13:05:21;;;;;;;3.47;3.17;;;27.40;80.00;;;;;;5052890;28;20549;-73
2023/06/17 13:07:47;;;;;;;3.90;3.07;;;27.60;80.70;;;;;;5052287;28;20541;-73
2023/06/17 13:10:15;;;;;;;3.27;2.97;;;27.70;80.80;;;;;;5052643;28;20490;-73
2023/06/17 13:12:41;;;;;;;3.50;3.20;;;27.70;83.00;;;;;;5051716;28;20541;-73
2023/06/17 13:15:10;;;;;;;4.10;3.47;;;27.70;82.90;;;;;;5052697;28;20489;-73
2023/06/17 13:17:37;;;;;;;3.87;3.53;;;27.60;81.70;;;;;;5051918;28;20462;-73
2023/06/17 13:20:05;;;;;;;3.73;3.13;;;27.50;79.00;;;;;;5052361;28;20464;-73
2023/06/17 13:22:34;;;;;;;4.50;3.23;;;27.30;80.00;;;;;;5051635;28;20866;-73
2023/06/17 13:25:01;;;;;;;3.77;3.43;;;26.90;81.50;;;;;;5052493;28;20459;-73
2023/06/17 13:27:29;;;;;;;3.90;3.60;;;26.70;77.80;;;;;;5051842;28;20466;-72
2023/06/17 13:29:56;;;;;;;3.70;3.37;;;26.60;78.40;;;;;;5052296;28;20481;-72
2023/06/17 13:32:24;;;;;;;5.33;3.27;;;26.60;84.60;;;;;;5049135;28;20853;-73
2023/06/17 13:34:51;;;;;;;3.50;3.20;;;26.80;82.30;;;;;;5051783;28;20486;-73
2023/06/17 13:37:18;;;;;;;3.90;3.60;;;27.00;80.70;;;;;;5052051;28;20537;-73
2023/06/17 13:39:44;;;;;;;3.50;3.20;;;27.00;81.50;;;;;;5043491;28;20498;-72
2023/06/17 13:42:11;;;;;;;3.60;3.30;;;27.10;88.10;;;;;;5044005;28;20469;-73